createdAt,value
2018-12-04T00:00:52.243Z,13.00
2018-12-04T00:03:23.185Z,12.90
2018-12-04T00:05:54.046Z,12.90
2018-12-04T00:08:24.844Z,12.80
2018-12-04T00:10:55.652Z,12.80
2018-12-04T00:13:28.105Z,12.70
2018-12-04T00:15:58.968Z,12.60
2018-12-04T00:18:29.741Z,12.60
2018-12-04T00:21:00.469Z,12.50
2018-12-04T00:23:32.013Z,12.50
2018-12-04T00:26:02.954Z,12.40
2018-12-04T00:28:33.978Z,12.40
2018-12-04T00:31:05.194Z,12.40
2018-12-04T00:33:35.966Z,12.30
2018-12-04T00:36:06.736Z,12.30
2018-12-04T00:38:37.461Z,12.20
2018-12-04T00:41:08.261Z,12.20
2018-12-04T00:43:45.061Z,12.20
2018-12-04T00:46:15.838Z,12.20
2018-12-04T00:48:46.670Z,12.20
2018-12-04T00:51:17.561Z,12.20
2018-12-04T00:53:48.340Z,12.10
2018-12-04T00:56:19.371Z,12.20
2018-12-04T00:58:50.202Z,12.20
2018-12-04T01:01:20.894Z,12.10
2018-12-04T01:03:51.849Z,11.80
2018-12-04T01:06:22.740Z,12.10
2018-12-04T01:08:53.488Z,12.10
2018-12-04T01:11:24.375Z,12.10
2018-12-04T01:13:55.755Z,12.10
2018-12-04T01:16:26.685Z,12.10
2018-12-04T01:18:57.492Z,12.10
2018-12-04T01:21:28.528Z,12.10
2018-12-04T01:23:59.263Z,12.10
2018-12-04T01:26:30.053Z,12.10
2018-12-04T01:29:00.964Z,12.10
2018-12-04T01:31:31.711Z,11.90
2018-12-04T01:34:02.513Z,12.10
2018-12-04T01:36:33.423Z,12.10
2018-12-04T01:39:06.787Z,12.10
2018-12-04T01:41:37.503Z,12.10
2018-12-04T01:44:08.704Z,12.10
2018-12-04T01:46:39.592Z,12.00
2018-12-04T01:49:10.353Z,12.10
2018-12-04T01:51:41.144Z,12.00
2018-12-04T01:54:11.956Z,12.10
2018-12-04T01:56:42.873Z,12.10
2018-12-04T01:59:13.630Z,12.10
2018-12-04T02:01:44.810Z,12.10
2018-12-04T02:04:15.526Z,12.10
2018-12-04T02:06:46.248Z,12.10
2018-12-04T02:09:20.098Z,12.10
2018-12-04T02:11:50.795Z,12.10
2018-12-04T02:14:22.732Z,12.10
2018-12-04T02:16:53.757Z,12.10
2018-12-04T02:19:24.581Z,12.10
2018-12-04T02:21:55.321Z,12.10
2018-12-04T02:24:26.073Z,11.40
2018-12-04T02:26:56.990Z,12.00
2018-12-04T02:29:27.840Z,12.00
2018-12-04T02:31:58.605Z,11.40
2018-12-04T02:34:29.407Z,12.00
2018-12-04T02:37:00.080Z,12.00
2018-12-04T02:39:31.356Z,12.00
2018-12-04T02:42:02.369Z,12.00
2018-12-04T02:44:33.083Z,12.00
2018-12-04T02:47:04.266Z,12.00
2018-12-04T02:49:34.932Z,12.00
2018-12-04T02:52:06.037Z,12.00
2018-12-04T02:54:36.761Z,12.00
2018-12-04T02:57:07.988Z,12.00
2018-12-04T02:59:38.729Z,12.00
2018-12-04T03:02:09.933Z,12.00
2018-12-04T03:04:40.618Z,12.00
2018-12-04T03:07:11.361Z,12.00
2018-12-04T03:09:42.091Z,12.00
2018-12-04T03:12:13.174Z,12.00
2018-12-04T03:14:44.062Z,12.00
2018-12-04T03:17:14.683Z,11.90
2018-12-04T03:19:45.360Z,11.90
2018-12-04T03:22:16.557Z,11.90
2018-12-04T03:24:47.183Z,11.80
2018-12-04T03:27:17.857Z,11.80
2018-12-04T03:29:48.608Z,11.80
2018-12-04T03:32:19.289Z,11.80
2018-12-04T03:34:49.982Z,11.70
2018-12-04T03:37:20.725Z,11.70
2018-12-04T03:39:51.548Z,12.60
2018-12-04T03:42:22.894Z,11.60
2018-12-04T03:44:53.734Z,11.60
2018-12-04T03:47:24.622Z,11.50
2018-12-04T03:49:55.375Z,11.60
2018-12-04T03:52:26.074Z,11.50
2018-12-04T03:54:56.969Z,11.40
2018-12-04T03:57:28.089Z,11.40
2018-12-04T03:59:58.925Z,11.30
2018-12-04T04:02:29.650Z,11.30
2018-12-04T04:05:00.671Z,11.30
2018-12-04T04:07:31.716Z,11.20
2018-12-04T04:10:02.417Z,11.20
2018-12-04T04:12:33.078Z,11.20
2018-12-04T04:15:04.755Z,11.10
2018-12-04T04:17:35.507Z,11.10
2018-12-04T04:20:08.076Z,11.00
2018-12-04T04:22:38.760Z,11.00
2018-12-04T04:25:09.587Z,10.90
2018-12-04T04:27:40.323Z,10.90
2018-12-04T04:30:11.174Z,10.90
2018-12-04T04:32:42.004Z,10.80
2018-12-04T04:35:13.168Z,10.80
2018-12-04T04:37:44.153Z,10.80
2018-12-04T04:40:15.086Z,10.70
2018-12-04T04:42:45.833Z,10.80
2018-12-04T04:45:16.604Z,10.70
2018-12-04T04:47:47.271Z,10.70
2018-12-04T04:50:18.104Z,10.60
2018-12-04T04:52:48.932Z,10.60
2018-12-04T04:55:19.709Z,10.60
2018-12-04T04:57:50.395Z,10.60
2018-12-04T05:00:21.681Z,10.60
2018-12-04T05:02:52.482Z,10.60
2018-12-04T05:05:23.108Z,10.60
2018-12-04T05:07:54.284Z,10.60
2018-12-04T05:10:24.940Z,10.60
2018-12-04T05:12:55.789Z,10.60
2018-12-04T05:15:26.501Z,10.60
2018-12-04T05:17:57.334Z,10.60
2018-12-04T05:20:28.361Z,10.60
2018-12-04T05:22:59.124Z,10.60
2018-12-04T05:25:30.304Z,10.60
2018-12-04T05:28:01.059Z,10.60
2018-12-04T05:30:31.982Z,10.60
2018-12-04T05:33:02.722Z,10.60
2018-12-04T05:35:33.407Z,10.70
2018-12-04T05:38:04.081Z,10.70
2018-12-04T05:40:34.774Z,10.70
2018-12-04T05:43:06.167Z,10.70
2018-12-04T05:45:37.577Z,10.60
2018-12-04T05:48:08.373Z,10.70
2018-12-04T05:50:39.303Z,10.60
2018-12-04T05:53:37.071Z,10.60
2018-12-04T05:56:11.887Z,10.60
2018-12-04T05:58:42.693Z,10.60
2018-12-04T06:01:13.976Z,10.60
2018-12-04T06:03:45.752Z,10.60
2018-12-04T06:06:16.637Z,10.50
2018-12-04T06:08:47.473Z,10.50
2018-12-04T06:11:18.192Z,10.50
2018-12-04T06:13:48.873Z,10.50
2018-12-04T06:16:19.624Z,10.50
2018-12-04T06:18:50.403Z,10.50
2018-12-04T06:21:21.170Z,10.50
2018-12-04T06:23:52.162Z,10.50
2018-12-04T06:26:23.043Z,10.50
2018-12-04T06:28:53.875Z,10.50
2018-12-04T06:31:24.599Z,10.50
2018-12-04T06:33:55.450Z,10.50
2018-12-04T06:36:26.717Z,10.50
2018-12-04T06:38:57.629Z,10.60
2018-12-04T06:41:28.524Z,10.60
2018-12-04T06:43:59.375Z,10.50
2018-12-04T06:46:30.100Z,10.50
2018-12-04T06:49:00.944Z,11.40
2018-12-04T06:51:32.025Z,10.50
2018-12-04T06:54:02.762Z,10.50
2018-12-04T06:56:33.550Z,10.60
2018-12-04T06:59:04.368Z,10.60
2018-12-04T07:01:35.636Z,10.50
2018-12-04T07:04:06.461Z,10.50
2018-12-04T07:06:37.205Z,10.50
2018-12-04T07:09:09.078Z,10.50
2018-12-04T07:11:39.976Z,10.50
2018-12-04T07:14:10.823Z,10.50
2018-12-04T07:16:41.548Z,10.50
2018-12-04T07:19:13.609Z,10.50
2018-12-04T07:21:44.480Z,10.60
2018-12-04T07:24:15.449Z,10.50
2018-12-04T07:26:47.637Z,10.10
2018-12-04T07:29:18.307Z,10.60
2018-12-04T07:31:49.104Z,10.60
2018-12-04T07:34:19.852Z,10.60
2018-12-04T07:36:50.536Z,10.60
2018-12-04T07:39:21.295Z,10.60
2018-12-04T07:41:52.007Z,10.60
2018-12-04T07:44:22.882Z,10.70
2018-12-04T07:46:53.631Z,10.70
2018-12-04T07:49:24.460Z,10.70
2018-12-04T07:51:55.257Z,10.70
2018-12-04T07:54:26.119Z,10.70
2018-12-04T07:56:57.016Z,10.70
2018-12-04T07:59:27.976Z,9.90
2018-12-04T08:01:58.781Z,10.70
2018-12-04T08:04:29.568Z,10.70
2018-12-04T08:07:00.353Z,10.70
2018-12-04T08:09:31.234Z,10.70
2018-12-04T08:12:02.432Z,10.80
2018-12-04T08:14:33.205Z,10.70
2018-12-04T08:17:04.369Z,10.80
2018-12-04T08:19:35.107Z,10.80
2018-12-04T08:22:06.378Z,10.80
2018-12-04T08:24:37.151Z,10.80
2018-12-04T08:27:09.319Z,10.80
2018-12-04T08:29:40.280Z,10.80
2018-12-04T08:32:11.400Z,10.80
2018-12-04T08:34:42.187Z,10.70
2018-12-04T08:37:13.132Z,10.70
2018-12-04T08:39:44.368Z,10.70
2018-12-04T08:42:15.151Z,10.70
2018-12-04T08:44:46.483Z,10.70
2018-12-04T08:47:17.399Z,10.00
2018-12-04T08:49:48.236Z,10.70
2018-12-04T08:52:19.006Z,10.70
2018-12-04T08:54:49.827Z,10.80
2018-12-04T08:57:20.692Z,10.90
2018-12-04T08:59:51.630Z,11.10
2018-12-04T09:02:29.677Z,11.20
2018-12-04T09:05:00.969Z,11.40
2018-12-04T09:07:31.706Z,11.60
2018-12-04T09:10:09.558Z,11.80
2018-12-04T09:12:40.940Z,12.10
2018-12-04T09:15:11.804Z,12.40
2018-12-04T09:17:42.518Z,12.60
2018-12-04T09:20:13.401Z,12.90
2018-12-04T09:22:44.418Z,13.20
2018-12-04T09:25:15.522Z,13.40
2018-12-04T09:27:46.579Z,13.70
2018-12-04T09:30:17.804Z,14.00
2018-12-04T09:32:48.712Z,14.20
2018-12-04T09:35:19.891Z,14.50
2018-12-04T09:37:50.728Z,14.90
2018-12-04T09:40:21.938Z,15.20
2018-12-04T09:42:53.204Z,15.30
2018-12-04T09:45:25.096Z,15.70
2018-12-04T09:47:55.836Z,15.90
2018-12-04T09:50:26.691Z,16.20
2018-12-04T09:52:57.413Z,16.40
2018-12-04T09:55:29.011Z,16.60
2018-12-04T09:57:59.975Z,16.80
2018-12-04T10:00:31.004Z,17.00
2018-12-04T10:03:01.742Z,17.40
2018-12-04T10:05:34.014Z,17.70
2018-12-04T10:08:04.922Z,17.80
2018-12-04T10:10:35.859Z,18.00
2018-12-04T10:13:06.603Z,18.20
2018-12-04T10:15:37.332Z,18.30
2018-12-04T10:18:09.013Z,18.50
2018-12-04T10:20:39.871Z,18.60
2018-12-04T10:23:11.580Z,18.70
2018-12-04T10:25:47.811Z,18.80
2018-12-04T10:28:19.176Z,19.00
2018-12-04T10:30:55.004Z,19.20
2018-12-04T10:33:25.782Z,19.50
2018-12-04T10:35:56.904Z,19.80
2018-12-04T10:38:27.860Z,20.00
2018-12-04T10:41:00.008Z,20.30
2018-12-04T10:43:30.832Z,20.50
2018-12-04T10:46:01.728Z,20.80
2018-12-04T10:48:32.665Z,21.00
2018-12-04T10:51:04.084Z,21.30
2018-12-04T10:53:35.203Z,21.60
2018-12-04T10:56:06.627Z,21.80
2018-12-04T10:58:37.553Z,22.10
2018-12-04T11:01:15.033Z,22.40
2018-12-04T11:03:45.834Z,22.50
2018-12-04T11:06:16.687Z,22.50
2018-12-04T11:08:47.407Z,22.40
2018-12-04T11:11:18.120Z,22.10
2018-12-04T11:13:48.917Z,21.70
2018-12-04T11:16:20.453Z,21.50
2018-12-04T11:18:51.185Z,21.40
2018-12-04T11:21:21.966Z,21.40
2018-12-04T11:23:52.842Z,21.40
2018-12-04T11:26:23.834Z,21.30
2018-12-04T11:28:54.668Z,21.00
2018-12-04T11:31:25.406Z,20.60
2018-12-04T11:33:56.108Z,20.20
2018-12-04T11:36:26.861Z,19.80
2018-12-04T11:38:57.802Z,19.50
2018-12-04T11:41:30.187Z,19.30
2018-12-04T11:44:01.131Z,19.20
2018-12-04T11:46:35.099Z,19.10
2018-12-04T11:49:05.938Z,19.00
2018-12-04T11:51:36.611Z,19.10
2018-12-04T11:54:07.837Z,19.30
2018-12-04T11:56:38.528Z,19.50
2018-12-04T11:59:09.567Z,19.90
2018-12-04T12:01:43.242Z,20.20
2018-12-04T12:04:14.168Z,20.60
2018-12-04T12:06:45.446Z,20.90
2018-12-04T12:09:16.353Z,20.90
2018-12-04T12:11:47.123Z,20.90
2018-12-04T12:14:18.087Z,20.80
2018-12-04T12:16:49.343Z,20.90
2018-12-04T12:19:20.237Z,21.10
2018-12-04T12:21:51.108Z,21.30
2018-12-04T12:24:21.938Z,21.50
2018-12-04T12:26:53.131Z,21.80
2018-12-04T12:29:23.905Z,22.00
2018-12-04T12:31:54.712Z,22.20
2018-12-04T12:34:25.874Z,22.30
2018-12-04T12:36:57.120Z,22.40
2018-12-04T12:39:27.859Z,22.40
2018-12-04T12:41:59.477Z,22.20
2018-12-04T12:44:30.181Z,21.90
2018-12-04T12:47:01.121Z,21.50
2018-12-04T12:49:32.095Z,21.10
2018-12-04T12:52:02.949Z,20.50
2018-12-04T12:54:33.673Z,19.90
2018-12-04T12:57:04.421Z,19.50
2018-12-04T12:59:35.126Z,19.00
2018-12-04T13:02:06.085Z,18.50
2018-12-04T13:04:36.977Z,18.10
2018-12-04T13:07:07.970Z,17.70
2018-12-04T13:09:39.224Z,17.30
2018-12-04T13:12:10.158Z,17.10
2018-12-04T13:14:41.698Z,16.80
2018-12-04T13:17:12.461Z,16.60
2018-12-04T13:19:43.240Z,16.40
2018-12-04T13:22:14.169Z,16.10
2018-12-04T13:24:45.004Z,15.90
2018-12-04T13:27:16.054Z,15.60
2018-12-04T13:29:46.819Z,15.50
2018-12-04T13:32:17.564Z,15.20
2018-12-04T13:34:48.474Z,15.00
2018-12-04T13:37:19.594Z,14.90
2018-12-04T13:39:51.046Z,14.80
2018-12-04T13:42:21.811Z,14.80
2018-12-04T13:44:52.795Z,14.90
2018-12-04T13:47:23.645Z,15.10
2018-12-04T13:49:54.415Z,15.30
2018-12-04T13:52:25.148Z,15.60
2018-12-04T13:54:56.437Z,15.80
2018-12-04T13:57:27.165Z,16.00
2018-12-04T13:59:57.921Z,16.20
2018-12-04T14:02:29.152Z,16.20
2018-12-04T14:05:00.736Z,16.20
2018-12-04T14:07:32.064Z,16.20
2018-12-04T14:10:02.785Z,16.10
2018-12-04T14:12:33.796Z,16.10
2018-12-04T14:15:05.644Z,16.00
2018-12-04T14:17:36.803Z,15.90
2018-12-04T14:20:10.021Z,15.80
2018-12-04T14:22:41.285Z,15.80
2018-12-04T14:25:12.240Z,15.70
2018-12-04T14:27:43.079Z,15.60
2018-12-04T14:30:14.296Z,15.40
2018-12-04T14:32:45.240Z,15.30
2018-12-04T14:35:16.105Z,15.10
2018-12-04T14:37:47.499Z,15.00
2018-12-04T14:40:19.736Z,14.80
2018-12-04T14:42:52.673Z,14.70
2018-12-04T14:45:23.881Z,14.50
2018-12-04T14:47:54.634Z,14.30
2018-12-04T14:50:26.725Z,14.30
2018-12-04T14:52:57.856Z,14.10
2018-12-04T14:55:28.731Z,14.00
2018-12-04T14:57:59.724Z,13.80
2018-12-04T15:00:30.565Z,13.70
2018-12-04T15:03:01.883Z,13.60
2018-12-04T15:05:33.065Z,13.50
2018-12-04T15:08:04.213Z,13.60
2018-12-04T15:10:35.108Z,13.30
2018-12-04T15:13:06.963Z,13.20
2018-12-04T15:15:38.848Z,13.20
2018-12-04T15:18:09.788Z,13.10
2018-12-04T15:20:40.804Z,13.00
2018-12-04T15:23:11.924Z,12.90
2018-12-04T15:25:46.324Z,12.80
2018-12-04T15:28:18.024Z,12.80
2018-12-04T15:30:50.210Z,12.60
2018-12-04T15:33:21.022Z,12.60
2018-12-04T15:35:52.031Z,12.50
2018-12-04T15:38:22.903Z,12.50
2018-12-04T15:40:54.206Z,12.40
2018-12-04T15:43:25.250Z,12.30
2018-12-04T15:45:56.504Z,12.20
2018-12-04T15:48:27.726Z,12.10
2018-12-04T15:51:00.013Z,12.10
2018-12-04T15:53:31.702Z,12.00
2018-12-04T15:56:02.800Z,11.90
2018-12-04T15:58:34.566Z,11.90
2018-12-04T16:01:05.420Z,11.80
2018-12-04T16:03:36.382Z,11.70
2018-12-04T16:06:07.299Z,11.70
2018-12-04T16:08:38.205Z,11.60
2018-12-04T16:11:09.067Z,11.60
2018-12-04T16:13:39.895Z,11.50
2018-12-04T16:16:11.029Z,11.50
2018-12-04T16:18:42.493Z,11.40
2018-12-04T16:21:13.510Z,11.30
2018-12-04T16:23:44.481Z,11.30
2018-12-04T16:26:17.084Z,11.20
2018-12-04T16:28:48.364Z,11.20
2018-12-04T16:31:19.214Z,11.10
2018-12-04T16:33:50.324Z,11.00
2018-12-04T16:36:21.178Z,11.00
2018-12-04T16:38:52.134Z,11.00
2018-12-04T16:41:22.977Z,10.90
2018-12-04T16:43:53.935Z,10.90
2018-12-04T16:46:24.765Z,10.80
2018-12-04T16:48:55.704Z,10.80
2018-12-04T16:51:26.359Z,10.70
2018-12-04T16:53:58.576Z,10.70
2018-12-04T16:56:29.498Z,10.70
2018-12-04T16:59:00.399Z,10.60
2018-12-04T17:01:34.211Z,10.60
2018-12-04T17:04:05.828Z,10.50
2018-12-04T17:06:36.624Z,10.40
2018-12-04T17:09:09.370Z,10.40
2018-12-04T17:11:40.639Z,10.40
2018-12-04T17:14:11.454Z,10.30
2018-12-04T17:16:42.594Z,10.30
2018-12-04T17:19:14.709Z,10.30
2018-12-04T17:21:45.443Z,10.30
2018-12-04T17:24:16.284Z,10.20
2018-12-04T17:26:47.486Z,10.20
2018-12-04T17:29:18.654Z,10.10
2018-12-04T17:31:49.523Z,10.10
2018-12-04T17:34:20.355Z,10.00
2018-12-04T17:36:51.194Z,10.00
2018-12-04T17:39:23.133Z,10.00
2018-12-04T17:41:54.044Z,10.00
2018-12-04T17:44:24.957Z,9.90
2018-12-04T17:46:55.801Z,9.90
2018-12-04T17:49:26.861Z,9.80
2018-12-04T17:51:57.821Z,9.80
2018-12-04T17:54:28.630Z,9.80
2018-12-04T17:56:59.904Z,9.70
2018-12-04T17:59:30.704Z,9.60
2018-12-04T18:02:01.697Z,9.60
2018-12-04T18:04:33.944Z,9.50
2018-12-04T18:07:05.278Z,9.50
2018-12-04T18:09:37.627Z,9.50
2018-12-04T18:12:08.584Z,9.40
2018-12-04T18:14:39.941Z,9.40
2018-12-04T18:17:10.911Z,9.30
2018-12-04T18:19:41.943Z,9.30
2018-12-04T18:22:12.668Z,9.20
2018-12-04T18:24:43.604Z,9.20
2018-12-04T18:27:15.479Z,9.10
2018-12-04T18:29:47.450Z,9.10
2018-12-04T18:32:18.354Z,9.00
2018-12-04T18:34:49.237Z,9.00
2018-12-04T18:37:20.092Z,8.90
2018-12-04T18:39:51.720Z,8.90
2018-12-04T18:42:22.782Z,8.90
2018-12-04T18:44:55.722Z,8.90
2018-12-04T18:47:26.724Z,8.80
2018-12-04T18:49:59.168Z,8.80
2018-12-04T18:52:30.458Z,8.70
2018-12-04T18:55:02.777Z,8.70
2018-12-04T18:57:33.810Z,8.70
2018-12-04T19:00:07.797Z,8.60
2018-12-04T19:02:38.715Z,8.60
2018-12-04T19:05:09.966Z,8.60
2018-12-04T19:07:40.897Z,8.50
2018-12-04T19:10:11.842Z,8.50
2018-12-04T19:12:42.836Z,8.40
2018-12-04T19:15:13.853Z,8.40
2018-12-04T19:17:44.583Z,8.30
2018-12-04T19:20:15.418Z,8.30
2018-12-04T19:22:46.272Z,8.30
2018-12-04T19:25:17.611Z,8.30
2018-12-04T19:27:48.546Z,8.20
2018-12-04T19:30:19.599Z,8.20
2018-12-04T19:32:51.220Z,8.20
2018-12-04T19:35:22.212Z,8.20
2018-12-04T19:37:53.318Z,8.20
2018-12-04T19:40:24.114Z,8.20
2018-12-04T19:42:55.267Z,8.20
2018-12-04T19:45:26.042Z,8.20
2018-12-04T19:47:56.859Z,8.10
2018-12-04T19:50:28.160Z,8.10
2018-12-04T19:52:58.963Z,8.10
2018-12-04T19:55:29.831Z,8.10
2018-12-04T19:58:00.829Z,8.00
2018-12-04T20:00:31.811Z,8.00
2018-12-04T20:03:02.739Z,7.90
2018-12-04T20:05:33.806Z,7.90
2018-12-04T20:08:05.042Z,7.90
2018-12-04T20:10:36.051Z,7.80
2018-12-04T20:13:06.958Z,7.80
2018-12-04T20:15:37.828Z,7.70
2018-12-04T20:18:08.751Z,7.70
2018-12-04T20:20:39.967Z,7.70
2018-12-04T20:23:10.868Z,9.20
2018-12-04T20:25:41.697Z,7.60
2018-12-04T20:28:12.487Z,7.50
2018-12-04T20:30:43.295Z,7.50
2018-12-04T20:33:14.109Z,7.40
2018-12-04T20:35:45.179Z,7.40
2018-12-04T20:38:16.173Z,7.30
2018-12-04T20:40:47.273Z,7.30
2018-12-04T20:43:18.084Z,7.20
2018-12-04T20:45:49.404Z,7.20
2018-12-04T20:48:20.184Z,7.20
2018-12-04T20:50:51.211Z,7.20
2018-12-04T20:53:21.984Z,7.20
2018-12-04T20:55:52.787Z,7.10
2018-12-04T20:58:23.798Z,7.00
2018-12-04T21:00:54.709Z,7.00
2018-12-04T21:03:25.753Z,7.00
2018-12-04T21:05:56.539Z,6.90
2018-12-04T21:08:27.337Z,7.00
2018-12-04T21:10:58.836Z,6.90
2018-12-04T21:13:29.628Z,6.90
2018-12-04T21:16:00.673Z,6.90
2018-12-04T21:18:31.455Z,6.90
2018-12-04T21:21:02.592Z,6.80
2018-12-04T21:23:33.389Z,6.80
2018-12-04T21:26:04.545Z,6.80
2018-12-04T21:28:35.373Z,6.70
2018-12-04T21:31:11.412Z,6.70
2018-12-04T21:33:47.810Z,6.70
2018-12-04T21:36:23.801Z,6.70
2018-12-04T21:39:04.843Z,6.70
2018-12-04T21:41:40.673Z,6.60
2018-12-04T21:44:16.753Z,6.60
2018-12-04T21:47:56.636Z,6.60
2018-12-04T21:50:27.833Z,6.60
2018-12-04T21:52:58.668Z,6.60
2018-12-04T21:55:29.643Z,6.60
2018-12-04T21:58:01.373Z,6.60
2018-12-04T22:00:32.211Z,6.60
2018-12-04T22:03:04.336Z,6.60
2018-12-04T22:05:35.307Z,6.60
2018-12-04T22:08:06.297Z,6.60
2018-12-04T22:10:37.096Z,6.60
2018-12-04T22:13:07.821Z,6.60
2018-12-04T22:15:40.395Z,6.60
2018-12-04T22:18:11.866Z,6.60
2018-12-04T22:20:43.058Z,6.60
2018-12-04T22:23:18.521Z,6.70
2018-12-04T22:25:49.812Z,6.70
2018-12-04T22:28:20.619Z,6.70
2018-12-04T22:30:51.339Z,6.70
2018-12-04T22:33:22.281Z,6.70
2018-12-04T22:35:53.027Z,6.70
2018-12-04T22:38:23.869Z,6.70
2018-12-04T22:40:54.817Z,6.70
2018-12-04T22:43:25.578Z,6.70
2018-12-04T22:45:56.428Z,6.70
2018-12-04T22:48:27.315Z,6.70
2018-12-04T22:50:58.556Z,6.60
2018-12-04T22:53:29.451Z,6.70
2018-12-04T22:56:00.465Z,6.70
2018-12-04T22:58:31.392Z,6.70
2018-12-04T23:01:03.863Z,6.70
2018-12-04T23:03:34.816Z,6.70
2018-12-04T23:06:06.162Z,6.70
2018-12-04T23:08:38.978Z,6.80
2018-12-04T23:11:10.545Z,6.80
2018-12-04T23:13:41.687Z,6.80
2018-12-04T23:16:13.588Z,6.80
2018-12-04T23:18:44.351Z,6.80
2018-12-04T23:21:15.579Z,6.70
2018-12-04T23:23:46.426Z,6.90
2018-12-04T23:26:17.231Z,6.90
2018-12-04T23:28:49.213Z,6.90
2018-12-04T23:31:20.010Z,7.00
2018-12-04T23:33:50.812Z,7.00
2018-12-04T23:36:21.516Z,7.00
2018-12-04T23:38:55.242Z,7.00
2018-12-04T23:41:25.958Z,7.10
2018-12-04T23:43:56.929Z,7.10
2018-12-04T23:46:27.771Z,7.10
2018-12-04T23:48:58.503Z,7.10
2018-12-04T23:51:29.301Z,7.10
2018-12-04T23:54:00.061Z,7.10
2018-12-04T23:56:31.565Z,7.10
2018-12-04T23:59:03.585Z,7.10
